Junction City, Kansas
Current Conditions -  °F | °C
As of 11:58 AM on Wednesday 28 Jan 2015 (Local Time) from KFRI Reporting Station
Clear Clear  
Wind Chill: 65°   Ceiling: Unl
Heat Index: 65°   Visibility: 10mi
Dew Point: 38°   Wind: 13mph
Humidity: 36%   Direction: 220°SW
Pressure: 29.78"   Gusts: NA
Location:  39.03°N, 96.83°W
Report Text: KFRI 281758Z AUTO 22011KT 10SM CLR 18/03 A2978 RMK AO2 SLP081 T01840031 10185 21013 58018
Loading
Personal Weather Stations






























Interactive Weather Map New forecast layout! Learn more

10-Day Weather Forecast

Advertisements
Track Severe Weather on mobile